Terminal Aerodrome Forecast
Issued by NWS Blacksburg, VA

Current Version | Previous Version | Graphics & Text | Print | Product List | Glossary On
Versions: 1 2 3 4 5 6 7 8 9 10 11 12 13 14 15 16 17 18 19 20 21
000
FTUS41 KRNK 211126
TAFBLF
TAF
KBLF 211126Z 2112/2212 13008G18KT P6SM BKN250
     FM212100 16007KT P6SM BKN060
     FM220600 17004KT 5SM -SHRA OVC050
     FM220900 16005KT 3SM -SHRA OVC025=

USA.gov is the U.S. government's official web portal to all federal, state and local government web resources and services.